createdAt,value
2022-09-14T00:02:07.818Z,18.97
2022-09-14T00:04:37.287Z,18.91
2022-09-14T00:07:07.145Z,18.95
2022-09-14T00:09:36.532Z,19.01
2022-09-14T00:12:05.911Z,18.99
2022-09-14T00:14:35.979Z,18.91
2022-09-14T00:17:05.339Z,18.86
2022-09-14T00:19:34.672Z,18.85
2022-09-14T00:22:03.969Z,18.87
2022-09-14T00:24:35.054Z,18.84
2022-09-14T00:27:05.355Z,18.76
2022-09-14T00:29:34.931Z,18.70
2022-09-14T00:32:04.625Z,18.73
2022-09-14T00:34:34.822Z,18.71
2022-09-14T00:37:04.220Z,18.65
2022-09-14T00:39:33.475Z,18.63
2022-09-14T00:42:02.845Z,18.71
2022-09-14T00:44:32.030Z,18.70
2022-09-14T00:47:04.438Z,18.66
2022-09-14T00:49:38.647Z,18.63
2022-09-14T00:52:11.752Z,18.57
2022-09-14T00:54:51.527Z,18.55
2022-09-14T00:57:22.189Z,18.55
2022-09-14T00:59:54.535Z,18.55
2022-09-14T01:02:25.763Z,18.56
2022-09-14T01:04:55.727Z,18.56
2022-09-14T01:07:45.009Z,18.55
2022-09-14T01:10:32.561Z,18.55
2022-09-14T01:13:27.993Z,18.44
2022-09-14T01:16:00.194Z,18.48
2022-09-14T01:18:37.946Z,18.45
2022-09-14T01:21:16.923Z,18.41
2022-09-14T01:23:54.847Z,18.37
2022-09-14T01:26:48.325Z,18.33
2022-09-14T01:29:29.793Z,18.29
2022-09-14T01:32:06.354Z,18.25
2022-09-14T01:34:53.730Z,18.22
2022-09-14T01:37:36.466Z,18.16
2022-09-14T01:40:28.562Z,18.15
2022-09-14T01:43:11.073Z,18.11
2022-09-14T01:45:49.341Z,18.05
2022-09-14T01:48:23.368Z,17.97
2022-09-14T01:51:01.179Z,17.94
2022-09-14T01:53:58.483Z,17.83
2022-09-14T01:56:35.378Z,17.78
2022-09-14T01:59:19.308Z,17.68
2022-09-14T02:01:59.195Z,17.64
2022-09-14T02:04:53.161Z,17.56
2022-09-14T02:07:23.936Z,17.52
2022-09-14T02:09:55.635Z,17.46
2022-09-14T02:12:25.816Z,17.47
2022-09-14T02:14:56.913Z,17.54
2022-09-14T02:17:26.383Z,17.51
2022-09-14T02:20:02.139Z,17.50
2022-09-14T02:22:33.000Z,17.50
2022-09-14T02:25:02.881Z,17.49
2022-09-14T02:27:32.258Z,17.46
2022-09-14T02:30:01.711Z,17.45
2022-09-14T02:32:49.696Z,17.50
2022-09-14T02:35:37.826Z,17.51
2022-09-14T02:38:28.090Z,17.53
2022-09-14T02:41:20.574Z,17.60
2022-09-14T02:44:12.694Z,17.61
2022-09-14T02:46:57.109Z,17.66
2022-09-14T02:49:54.836Z,17.70
2022-09-14T02:52:55.046Z,17.61
2022-09-14T02:55:28.907Z,17.50
2022-09-14T02:58:03.327Z,17.43
2022-09-14T03:00:36.769Z,17.37
2022-09-14T03:03:08.211Z,17.32
2022-09-14T03:05:38.264Z,17.29
2022-09-14T03:08:07.851Z,17.30
2022-09-14T03:10:37.359Z,17.28
2022-09-14T03:13:07.178Z,17.18
2022-09-14T03:15:36.486Z,17.22
2022-09-14T03:18:05.773Z,17.20
2022-09-14T03:20:36.713Z,17.18
2022-09-14T03:23:09.154Z,17.15
2022-09-14T03:25:42.339Z,17.10
2022-09-14T03:28:12.559Z,17.08
2022-09-14T03:30:42.173Z,17.00
2022-09-14T03:33:12.186Z,16.99
2022-09-14T03:35:43.141Z,16.93
2022-09-14T03:38:12.448Z,16.88
2022-09-14T03:40:41.932Z,16.79
2022-09-14T03:43:12.612Z,16.74
2022-09-14T03:45:42.299Z,16.73
2022-09-14T03:48:15.391Z,16.66
2022-09-14T03:50:44.969Z,16.63
2022-09-14T03:53:17.375Z,16.61
2022-09-14T03:55:46.571Z,16.63
2022-09-14T03:58:16.018Z,16.63
2022-09-14T04:00:45.340Z,16.70
2022-09-14T04:03:14.685Z,16.72
2022-09-14T04:05:45.344Z,16.67
2022-09-14T04:08:14.613Z,16.63
2022-09-14T04:10:43.921Z,16.58
2022-09-14T04:13:13.204Z,16.52
2022-09-14T04:15:42.588Z,16.58
2022-09-14T04:18:12.327Z,16.57
2022-09-14T04:20:41.714Z,16.65
2022-09-14T04:23:12.364Z,16.70
2022-09-14T04:25:41.705Z,16.68
2022-09-14T04:28:20.298Z,16.65
2022-09-14T04:31:03.963Z,16.62
2022-09-14T04:33:35.443Z,16.58
2022-09-14T04:36:10.603Z,16.57
2022-09-14T04:38:40.932Z,16.51
2022-09-14T04:41:16.089Z,16.50
2022-09-14T04:43:46.831Z,16.55
2022-09-14T04:46:19.587Z,16.65
2022-09-14T04:48:49.822Z,16.74
2022-09-14T04:51:22.181Z,16.84
2022-09-14T04:53:54.551Z,16.89
2022-09-14T04:56:25.231Z,16.88
2022-09-14T04:59:00.282Z,16.93
2022-09-14T05:01:32.766Z,16.97
2022-09-14T05:04:02.269Z,16.86
2022-09-14T05:06:35.143Z,16.79
2022-09-14T05:09:06.356Z,16.79
2022-09-14T05:11:37.696Z,16.74
2022-09-14T05:14:07.901Z,16.66
2022-09-14T05:16:39.480Z,16.62
2022-09-14T05:19:13.722Z,16.60
2022-09-14T05:21:43.084Z,16.59
2022-09-14T05:24:18.311Z,16.57
2022-09-14T05:26:48.887Z,16.55
2022-09-14T05:29:20.239Z,16.61
2022-09-14T05:31:49.870Z,16.59
2022-09-14T05:34:19.318Z,16.55
2022-09-14T05:36:49.107Z,16.58
2022-09-14T05:39:23.039Z,16.62
2022-09-14T05:41:52.820Z,16.63
2022-09-14T05:44:22.079Z,16.66
2022-09-14T05:46:51.565Z,16.70
2022-09-14T05:49:20.921Z,16.79
2022-09-14T05:51:50.217Z,16.85
2022-09-14T05:54:19.523Z,16.87
2022-09-14T05:56:48.862Z,16.81
2022-09-14T05:59:18.206Z,16.72
2022-09-14T06:01:48.773Z,16.66
2022-09-14T06:04:18.050Z,16.62
2022-09-14T06:07:01.722Z,16.60
2022-09-14T06:09:36.763Z,16.56
2022-09-14T06:12:06.149Z,16.52
2022-09-14T06:14:35.383Z,16.50
2022-09-14T06:17:05.768Z,16.48
2022-09-14T06:19:35.197Z,16.45
2022-09-14T06:22:04.538Z,16.45
2022-09-14T06:24:33.820Z,16.43
2022-09-14T06:27:03.054Z,16.49
2022-09-14T06:29:32.289Z,16.49
2022-09-14T06:32:01.533Z,16.55
2022-09-14T06:34:30.792Z,16.58
2022-09-14T06:37:00.159Z,16.55
2022-09-14T06:39:29.418Z,16.58
2022-09-14T06:41:58.714Z,16.63
2022-09-14T06:44:31.232Z,16.72
2022-09-14T06:47:00.738Z,16.68
2022-09-14T06:49:30.198Z,16.64
2022-09-14T06:52:00.900Z,16.70
2022-09-14T06:54:30.377Z,16.89
2022-09-14T06:56:59.648Z,17.01
2022-09-14T06:59:29.075Z,17.13
2022-09-14T07:01:58.389Z,17.15
2022-09-14T07:04:27.686Z,17.07
2022-09-14T07:06:56.976Z,17.01
2022-09-14T07:09:26.431Z,17.00
2022-09-14T07:11:56.501Z,16.96
2022-09-14T07:14:29.238Z,17.02
2022-09-14T07:17:00.912Z,17.04
2022-09-14T07:19:30.176Z,16.95
2022-09-14T07:21:59.456Z,16.95
2022-09-14T07:24:28.688Z,16.94
2022-09-14T07:26:58.011Z,16.95
2022-09-14T07:29:27.358Z,16.92
2022-09-14T07:31:56.697Z,16.96
2022-09-14T07:34:26.544Z,16.99
2022-09-14T07:36:55.808Z,17.09
2022-09-14T07:39:25.068Z,17.03
2022-09-14T07:41:54.349Z,17.06
2022-09-14T07:44:23.738Z,17.04
2022-09-14T07:46:53.032Z,17.03
2022-09-14T07:49:22.486Z,17.00
2022-09-14T07:51:51.887Z,17.00
2022-09-14T07:54:21.713Z,17.07
2022-09-14T07:56:51.375Z,17.08
2022-09-14T07:59:37.157Z,17.09
2022-09-14T08:02:14.371Z,17.15
2022-09-14T08:04:44.050Z,17.14
2022-09-14T08:07:13.561Z,16.99
2022-09-14T08:09:42.824Z,17.07
2022-09-14T08:12:12.153Z,17.09
2022-09-14T08:14:43.903Z,17.19
2022-09-14T08:17:13.414Z,17.28
2022-09-14T08:19:42.639Z,17.31
2022-09-14T08:22:12.008Z,17.39
2022-09-14T08:24:42.548Z,17.44
2022-09-14T08:27:16.637Z,17.45
2022-09-14T08:29:46.599Z,17.51
2022-09-14T08:32:15.872Z,17.68
2022-09-14T08:34:45.108Z,17.79
2022-09-14T08:37:15.130Z,17.65
2022-09-14T08:39:50.893Z,17.56
2022-09-14T08:42:25.128Z,17.51
2022-09-14T08:45:09.852Z,17.54
2022-09-14T08:47:41.730Z,17.55
2022-09-14T08:50:20.788Z,17.57
2022-09-14T08:52:53.383Z,17.45
2022-09-14T08:55:49.890Z,17.48
2022-09-14T08:58:45.128Z,17.58
2022-09-14T09:01:33.644Z,17.72
2022-09-14T09:04:20.722Z,17.81
2022-09-14T09:06:58.399Z,17.90
2022-09-14T09:09:52.381Z,18.07
2022-09-14T09:12:24.819Z,18.13
2022-09-14T09:15:03.764Z,18.28
2022-09-14T09:17:47.367Z,18.27
2022-09-14T09:20:20.356Z,18.07
2022-09-14T09:23:11.509Z,18.10
2022-09-14T09:25:50.050Z,18.26
2022-09-14T09:28:19.944Z,18.24
2022-09-14T09:30:49.589Z,18.14
2022-09-14T09:33:23.915Z,17.93
2022-09-14T09:36:18.473Z,17.88
2022-09-14T09:38:47.743Z,17.98
2022-09-14T09:41:27.147Z,18.10
2022-09-14T09:44:09.494Z,18.17
2022-09-14T09:46:42.262Z,18.18
2022-09-14T09:49:39.014Z,18.35
2022-09-14T09:52:19.463Z,18.43
2022-09-14T09:54:54.250Z,18.36
2022-09-14T09:57:26.323Z,18.25
2022-09-14T10:00:12.360Z,18.33
2022-09-14T10:02:42.926Z,18.54
2022-09-14T10:05:12.257Z,18.59
2022-09-14T10:08:20.087Z,18.46
2022-09-14T10:10:49.403Z,18.25
2022-09-14T10:13:37.693Z,18.31
2022-09-14T10:16:19.906Z,18.36
2022-09-14T10:18:55.373Z,18.36
2022-09-14T10:21:27.244Z,18.27
2022-09-14T10:24:19.862Z,18.22
2022-09-14T10:26:49.162Z,18.19
2022-09-14T10:29:27.146Z,18.31
2022-09-14T10:32:03.127Z,18.30
2022-09-14T10:34:33.923Z,18.22
2022-09-14T10:37:29.578Z,18.16
2022-09-14T10:40:15.763Z,18.23
2022-09-14T10:43:10.711Z,18.24
2022-09-14T10:45:53.187Z,18.29
2022-09-14T10:48:22.414Z,18.37
2022-09-14T10:51:30.849Z,18.35
2022-09-14T10:54:15.050Z,18.27
2022-09-14T10:57:04.251Z,18.27
2022-09-14T10:59:53.096Z,18.21
2022-09-14T11:02:25.472Z,18.24
2022-09-14T11:05:12.279Z,18.32
2022-09-14T11:08:05.833Z,18.32
2022-09-14T11:11:13.667Z,18.38
2022-09-14T11:14:05.315Z,18.34
2022-09-14T11:16:59.497Z,18.34
2022-09-14T11:19:34.940Z,18.19
2022-09-14T11:22:41.986Z,18.18
2022-09-14T11:25:22.447Z,18.01
2022-09-14T11:28:00.262Z,17.96
2022-09-14T11:30:53.801Z,17.93
2022-09-14T11:33:38.341Z,18.13
2022-09-14T11:36:16.705Z,18.23
2022-09-14T11:38:56.227Z,18.19
2022-09-14T11:41:31.608Z,18.21
2022-09-14T11:44:06.447Z,18.16
2022-09-14T11:46:40.759Z,18.12
2022-09-14T11:49:28.874Z,18.11
2022-09-14T11:52:17.418Z,18.04
2022-09-14T11:54:47.167Z,17.96
2022-09-14T11:57:20.875Z,18.04
2022-09-14T11:59:54.103Z,18.14
2022-09-14T12:02:26.477Z,18.17
2022-09-14T12:05:08.204Z,18.27
2022-09-14T12:07:45.403Z,18.22
2022-09-14T12:10:17.764Z,17.96
2022-09-14T12:13:08.513Z,17.81
2022-09-14T12:15:41.146Z,17.90
2022-09-14T12:18:10.549Z,18.11
2022-09-14T12:20:52.934Z,18.10
2022-09-14T12:23:27.684Z,17.92
2022-09-14T12:26:35.850Z,17.81
2022-09-14T12:29:28.221Z,17.63
2022-09-14T12:31:57.548Z,17.49
2022-09-14T12:34:31.985Z,17.38
2022-09-14T12:37:32.043Z,17.29
2022-09-14T12:40:23.107Z,17.24
2022-09-14T12:42:52.468Z,17.19
2022-09-14T12:45:51.880Z,17.08
2022-09-14T12:48:49.291Z,17.02
2022-09-14T12:51:39.587Z,16.91
2022-09-14T12:54:13.388Z,16.94
2022-09-14T12:57:09.027Z,16.97
2022-09-14T12:59:47.386Z,16.93
2022-09-14T13:02:29.061Z,16.95
2022-09-14T13:05:00.603Z,17.11
2022-09-14T13:07:36.690Z,17.17
2022-09-14T13:10:09.072Z,17.22
2022-09-14T13:12:45.935Z,17.38
2022-09-14T13:15:23.728Z,17.28
2022-09-14T13:18:08.710Z,17.09
2022-09-14T13:20:38.821Z,17.21
2022-09-14T13:23:22.742Z,17.41
2022-09-14T13:25:53.322Z,17.52
2022-09-14T13:28:23.723Z,17.50
2022-09-14T13:31:04.587Z,17.59
2022-09-14T13:33:33.972Z,17.58
2022-09-14T13:36:05.692Z,17.65
2022-09-14T13:38:39.555Z,17.61
2022-09-14T13:41:13.746Z,17.47
2022-09-14T13:43:44.807Z,17.43
2022-09-14T13:46:18.386Z,17.32
2022-09-14T13:48:49.816Z,17.24
2022-09-14T13:51:19.444Z,17.30
2022-09-14T13:53:54.225Z,17.27
2022-09-14T13:56:31.012Z,17.33
2022-09-14T13:59:12.824Z,17.31
2022-09-14T14:01:44.933Z,17.31
2022-09-14T14:04:38.391Z,17.34
2022-09-14T14:07:27.634Z,17.37
2022-09-14T14:10:01.290Z,17.29
2022-09-14T14:12:36.982Z,17.23
2022-09-14T14:15:13.797Z,17.20
2022-09-14T14:17:44.218Z,17.22
2022-09-14T14:20:34.004Z,17.32
2022-09-14T14:23:22.920Z,17.31
2022-09-14T14:25:57.551Z,17.30
2022-09-14T14:28:30.244Z,17.28
2022-09-14T14:31:07.726Z,17.37
2022-09-14T14:33:38.603Z,17.50
2022-09-14T14:36:10.716Z,17.56
2022-09-14T14:38:40.948Z,17.49
2022-09-14T14:41:10.957Z,17.47
2022-09-14T14:43:44.025Z,17.43
2022-09-14T14:46:13.354Z,17.41
2022-09-14T14:48:42.774Z,17.43
2022-09-14T14:51:16.702Z,17.35
2022-09-14T14:53:46.163Z,17.31
2022-09-14T14:56:16.680Z,17.27
2022-09-14T14:58:47.970Z,17.24
2022-09-14T15:01:17.572Z,17.27
2022-09-14T15:03:47.213Z,17.33
2022-09-14T15:06:22.471Z,17.38
2022-09-14T15:08:56.644Z,17.64
2022-09-14T15:11:26.508Z,17.78
2022-09-14T15:13:56.011Z,17.95
2022-09-14T15:16:25.365Z,18.03
2022-09-14T15:18:54.635Z,18.11
2022-09-14T15:21:23.947Z,18.06
2022-09-14T15:23:53.391Z,18.01
2022-09-14T15:26:23.361Z,17.94
2022-09-14T15:28:52.677Z,17.89
2022-09-14T15:31:22.678Z,18.00
2022-09-14T15:33:52.014Z,18.03
2022-09-14T15:36:52.044Z,17.99
2022-09-14T15:39:29.400Z,18.04
2022-09-14T15:41:59.402Z,18.12
2022-09-14T15:44:29.570Z,18.14
2022-09-14T15:46:59.715Z,18.11
2022-09-14T15:49:29.240Z,18.29
2022-09-14T15:51:59.823Z,18.31
2022-09-14T15:54:35.863Z,18.27
2022-09-14T15:57:08.161Z,18.28
2022-09-14T15:59:37.741Z,18.40
2022-09-14T16:02:07.436Z,18.47
2022-09-14T16:04:41.260Z,18.45
2022-09-14T16:07:12.386Z,18.30
2022-09-14T16:09:42.850Z,18.20
2022-09-14T16:12:15.104Z,18.13
2022-09-14T16:14:45.227Z,18.07
2022-09-14T16:17:14.560Z,18.03
2022-09-14T16:19:46.740Z,18.10
2022-09-14T16:22:16.018Z,18.14
2022-09-14T16:24:45.308Z,18.12
2022-09-14T16:27:14.611Z,18.15
2022-09-14T16:29:43.865Z,18.15
2022-09-14T16:32:13.303Z,18.16
2022-09-14T16:34:42.877Z,18.16
2022-09-14T16:37:12.166Z,18.18
2022-09-14T16:39:41.838Z,18.26
2022-09-14T16:42:11.108Z,18.26
2022-09-14T16:44:40.450Z,18.23
2022-09-14T16:47:09.793Z,18.25
2022-09-14T16:49:39.838Z,18.27
2022-09-14T16:52:09.148Z,18.36
2022-09-14T16:54:38.407Z,18.40
2022-09-14T16:57:07.688Z,18.36
2022-09-14T16:59:36.991Z,18.31
2022-09-14T17:02:06.399Z,18.32
2022-09-14T17:04:35.737Z,18.25
2022-09-14T17:07:05.064Z,18.26
2022-09-14T17:09:34.443Z,18.27
2022-09-14T17:12:03.726Z,18.28
2022-09-14T17:14:34.807Z,18.23
2022-09-14T17:17:04.256Z,18.14
2022-09-14T17:19:33.592Z,18.07
2022-09-14T17:22:03.925Z,17.96
2022-09-14T17:24:33.228Z,17.83
2022-09-14T17:27:02.925Z,17.81
2022-09-14T17:29:32.544Z,17.76
2022-09-14T17:32:01.999Z,17.67
2022-09-14T17:34:31.344Z,17.60
2022-09-14T17:37:00.640Z,17.60
2022-09-14T17:39:30.027Z,17.44
2022-09-14T17:41:59.338Z,17.26
2022-09-14T17:44:31.367Z,17.16
2022-09-14T17:47:01.286Z,17.05
2022-09-14T17:49:30.630Z,16.96
2022-09-14T17:52:01.462Z,16.89
2022-09-14T17:54:30.854Z,16.89
2022-09-14T17:57:00.106Z,16.86
2022-09-14T17:59:29.347Z,16.81
2022-09-14T18:01:58.624Z,16.81
2022-09-14T18:04:28.152Z,16.81
2022-09-14T18:06:57.447Z,16.81
2022-09-14T18:09:27.000Z,16.83
2022-09-14T18:11:58.652Z,16.82
2022-09-14T18:14:28.164Z,16.79
2022-09-14T18:16:59.839Z,16.73
2022-09-14T18:19:29.528Z,16.67
2022-09-14T18:21:58.870Z,16.63
2022-09-14T18:24:28.315Z,16.62
2022-09-14T18:26:57.631Z,16.57
2022-09-14T18:29:29.780Z,16.51
2022-09-14T18:31:59.204Z,16.47
2022-09-14T18:34:29.093Z,16.48
2022-09-14T18:36:58.512Z,16.45
2022-09-14T18:39:28.058Z,16.51
2022-09-14T18:41:57.393Z,16.51
2022-09-14T18:44:26.652Z,16.53
2022-09-14T18:46:55.959Z,16.45
2022-09-14T18:49:25.314Z,16.35
2022-09-14T18:51:54.627Z,16.23
2022-09-14T18:54:27.641Z,16.12
2022-09-14T18:56:57.217Z,16.10
2022-09-14T18:59:26.768Z,16.03
2022-09-14T19:01:56.124Z,15.97
2022-09-14T19:04:27.596Z,15.95
2022-09-14T19:06:56.939Z,16.00
2022-09-14T19:09:26.494Z,16.03
2022-09-14T19:11:55.831Z,16.04
2022-09-14T19:14:25.197Z,15.99
2022-09-14T19:16:54.516Z,15.99
2022-09-14T19:19:27.338Z,16.00
2022-09-14T19:21:56.697Z,15.98
2022-09-14T19:24:27.587Z,15.96
2022-09-14T19:26:56.873Z,15.92
2022-09-14T19:29:28.609Z,15.92
2022-09-14T19:31:58.436Z,15.93
2022-09-14T19:34:30.200Z,15.94
2022-09-14T19:36:59.606Z,15.94
2022-09-14T19:39:29.459Z,15.90
2022-09-14T19:41:59.005Z,15.88
2022-09-14T19:44:28.307Z,15.86
2022-09-14T19:46:58.573Z,15.84
2022-09-14T19:49:28.918Z,15.83
2022-09-14T19:51:58.188Z,15.85
2022-09-14T19:54:27.735Z,15.79
2022-09-14T19:56:57.067Z,15.72
2022-09-14T19:59:26.643Z,15.72
2022-09-14T20:01:56.722Z,15.68
2022-09-14T20:04:26.248Z,15.61
2022-09-14T20:06:56.504Z,15.51
2022-09-14T20:09:26.594Z,15.40
2022-09-14T20:11:56.006Z,15.37
2022-09-14T20:14:27.710Z,15.34
2022-09-14T20:16:59.753Z,15.32
2022-09-14T20:19:32.529Z,15.33
2022-09-14T20:22:01.790Z,15.31
2022-09-14T20:24:32.507Z,15.27
2022-09-14T20:27:03.394Z,15.35
2022-09-14T20:29:35.443Z,15.37
2022-09-14T20:32:06.611Z,15.38
2022-09-14T20:34:36.723Z,15.41
2022-09-14T20:37:06.188Z,15.41
2022-09-14T20:39:38.308Z,15.38
2022-09-14T20:42:08.112Z,15.38
2022-09-14T20:44:37.686Z,15.35
2022-09-14T20:47:07.071Z,15.33
2022-09-14T20:49:36.341Z,15.33
2022-09-14T20:52:05.963Z,15.32
2022-09-14T20:54:35.326Z,15.33
2022-09-14T20:57:04.837Z,15.33
2022-09-14T20:59:34.546Z,15.32
2022-09-14T21:02:05.664Z,15.32
2022-09-14T21:04:37.087Z,15.29
2022-09-14T21:07:06.410Z,15.33
2022-09-14T21:09:37.837Z,15.38
2022-09-14T21:12:11.644Z,15.39
2022-09-14T21:14:41.038Z,15.33
2022-09-14T21:17:10.495Z,15.29
2022-09-14T21:19:40.557Z,15.26
2022-09-14T21:22:09.815Z,15.32
2022-09-14T21:24:39.090Z,15.33
2022-09-14T21:27:08.394Z,15.37
2022-09-14T21:29:37.650Z,15.43
2022-09-14T21:32:09.097Z,15.44
2022-09-14T21:34:38.772Z,15.45
2022-09-14T21:37:08.818Z,15.50
2022-09-14T21:39:42.778Z,15.48
2022-09-14T21:42:12.040Z,15.52
2022-09-14T21:44:41.891Z,15.53
2022-09-14T21:47:11.178Z,15.56
2022-09-14T21:49:40.489Z,15.58
2022-09-14T21:52:09.777Z,15.61
2022-09-14T21:54:42.669Z,15.62
2022-09-14T21:57:12.273Z,15.66
2022-09-14T21:59:43.895Z,15.68
2022-09-14T22:02:13.225Z,15.68
2022-09-14T22:04:42.638Z,15.69
2022-09-14T22:07:11.894Z,15.74
2022-09-14T22:09:41.175Z,15.74
2022-09-14T22:12:10.723Z,15.78
2022-09-14T22:14:40.004Z,15.79
2022-09-14T22:17:11.925Z,15.80
2022-09-14T22:19:46.447Z,15.75
2022-09-14T22:22:15.727Z,15.68
2022-09-14T22:24:45.059Z,15.68
2022-09-14T22:27:17.473Z,15.69
2022-09-14T22:29:47.585Z,15.72
2022-09-14T22:32:16.849Z,15.68
2022-09-14T22:34:49.634Z,15.69
2022-09-14T22:37:19.294Z,15.74
2022-09-14T22:39:48.875Z,15.76
2022-09-14T22:42:18.195Z,15.78
2022-09-14T22:44:47.454Z,15.78
2022-09-14T22:47:16.707Z,15.79
2022-09-14T22:49:46.016Z,15.86
2022-09-14T22:52:15.325Z,15.86
2022-09-14T22:54:44.570Z,15.88
2022-09-14T22:57:13.914Z,15.90
2022-09-14T22:59:43.244Z,15.96
2022-09-14T23:02:12.891Z,15.98
2022-09-14T23:04:42.732Z,16.01
2022-09-14T23:07:12.050Z,16.05
2022-09-14T23:09:41.903Z,16.13
2022-09-14T23:12:11.243Z,16.20
2022-09-14T23:14:42.477Z,16.24
2022-09-14T23:17:13.112Z,16.30
2022-09-14T23:19:42.436Z,16.32
2022-09-14T23:22:11.735Z,16.37
2022-09-14T23:24:41.171Z,16.36
2022-09-14T23:27:10.480Z,16.33
2022-09-14T23:29:39.865Z,16.28
2022-09-14T23:32:09.572Z,16.21
2022-09-14T23:34:39.565Z,16.16
2022-09-14T23:37:09.055Z,16.08
2022-09-14T23:39:38.471Z,15.97
2022-09-14T23:42:07.958Z,15.90
2022-09-14T23:44:37.320Z,15.85
2022-09-14T23:47:06.714Z,15.81
2022-09-14T23:49:36.109Z,15.73
2022-09-14T23:52:05.804Z,15.66
2022-09-14T23:54:35.259Z,15.60
2022-09-14T23:57:04.570Z,15.56
2022-09-14T23:59:33.879Z,15.54
